Terminal Aerodrome Forecast
Issued by NWS Greer, SC

Home | Current Version | Previous Version | Text Only | Print | Product List | Glossary On
Versions: 1 2 3 4 5 6 7 8 9 10 11 12 13
150
FTUS42 KGSP 081731
TAFGSP
TAF
KGSP 081731Z 0818/0918 24012G20KT P6SM VCSH OVC080
      TEMPO 0818/0821 6SM -SHRA SCT030 BKN050 OVC080
     FM090000 27009KT P6SM SCT250
     FM091500 27012G17KT P6SM BKN080=

USA.gov is the U.S. government's official web portal to all federal, state and local government web resources and services.